Time;durP1;ratioP1;P1;durP2;ratioP2;P2;SDS_P1;SDS_P2;PMS_P1;PMS_P2;Temp;Humidity;BMP_temperature;BMP_pressure;BME280_temperature;BME280_humidity;BME280_pressure;Samples;Min_cycle;Max_cycle;Signal;HPM_P1;HPM_P2
2023/07/26 00:00:07;;;;;;;2.10;1.57;;;13.40;99.90;;;;;;5092645;28;20045;-67
2023/07/26 00:02:33;;;;;;;4.50;1.42;;;13.30;99.90;;;;;;5091193;28;20028;-65
2023/07/26 00:04:59;;;;;;;3.37;1.47;;;13.30;99.90;;;;;;5092996;28;20036;-66
2023/07/26 00:07:25;;;;;;;1.73;1.30;;;13.30;99.90;;;;;;5096297;28;20020;-66
2023/07/26 00:09:50;;;;;;;2.70;1.53;;;13.30;99.90;;;;;;5093689;28;20456;-65
2023/07/26 00:12:16;;;;;;;1.73;1.33;;;13.30;99.90;;;;;;5094095;28;20032;-66
2023/07/26 00:14:42;;;;;;;1.43;1.20;;;13.30;99.90;;;;;;5091047;28;20027;-66
2023/07/26 00:17:08;;;;;;;2.28;1.10;;;13.20;99.90;;;;;;5095532;28;20115;-88
2023/07/26 00:19:34;;;;;;;1.77;1.45;;;13.20;99.90;;;;;;5088930;28;20047;-65
2023/07/26 00:22:00;;;;;;;8.43;1.33;;;13.20;99.90;;;;;;5095154;28;20361;-65
2023/07/26 00:24:25;;;;;;;1.73;1.30;;;13.20;99.90;;;;;;5093535;28;20032;-65
2023/07/26 00:26:51;;;;;;;1.80;1.13;;;13.30;99.90;;;;;;5093367;28;20099;-66
2023/07/26 00:29:17;;;;;;;3.03;1.60;;;13.30;99.90;;;;;;5094454;28;20073;-66
2023/07/26 00:31:43;;;;;;;8.20;1.53;;;13.30;99.90;;;;;;5094930;28;20074;-65
2023/07/26 00:34:12;;;;;;;3.95;1.80;;;13.30;99.90;;;;;;5093452;28;20111;-68
2023/07/26 00:36:38;;;;;;;2.95;1.27;;;13.30;99.90;;;;;;5095844;28;20487;-65
2023/07/26 00:39:04;;;;;;;2.73;1.40;;;13.30;99.90;;;;;;5093380;28;20028;-65
2023/07/26 00:41:30;;;;;;;5.80;1.20;;;13.30;99.90;;;;;;5095620;28;20108;-65
2023/07/26 00:43:55;;;;;;;2.53;1.17;;;13.30;99.90;;;;;;5093399;28;20032;-66
2023/07/26 00:46:21;;;;;;;1.83;1.30;;;13.40;99.90;;;;;;5093852;28;20032;-65
2023/07/26 00:48:48;;;;;;;1.60;1.50;;;13.40;99.90;;;;;;5093669;28;20024;-65
2023/07/26 00:51:14;;;;;;;2.78;0.93;;;13.30;99.90;;;;;;5075002;28;20020;-65
2023/07/26 00:53:40;;;;;;;3.92;1.42;;;13.20;99.90;;;;;;5076288;28;20066;-65
2023/07/26 00:56:07;;;;;;;2.00;1.40;;;13.10;99.90;;;;;;5094320;28;20049;-65
2023/07/26 00:58:33;;;;;;;1.85;1.50;;;13.10;99.90;;;;;;5095384;28;20028;-65
2023/07/26 01:00:59;;;;;;;2.83;1.73;;;13.00;99.90;;;;;;5094590;28;20043;-65
2023/07/26 01:03:25;;;;;;;4.00;1.90;;;13.00;99.90;;;;;;5094256;28;20047;-65
2023/07/26 01:06:16;;;;;;;4.40;1.87;;;12.90;99.90;;;;;;5093754;28;20419;-65
2023/07/26 01:08:57;;;;;;;3.25;1.70;;;12.80;99.90;;;;;;5080280;28;20502;-65
2023/07/26 01:11:41;;;;;;;3.28;1.77;;;12.80;99.90;;;;;;5093742;28;20110;-65
2023/07/26 01:14:27;;;;;;;2.60;1.83;;;12.70;99.90;;;;;;5093184;28;20031;-65
2023/07/26 01:16:54;;;;;;;3.00;1.70;;;12.70;99.90;;;;;;5083820;28;20032;-87
2023/07/26 01:19:19;;;;;;;2.85;1.95;;;12.60;99.90;;;;;;5087949;28;20046;-65
2023/07/26 01:21:45;;;;;;;5.50;2.50;;;12.60;99.90;;;;;;5093718;28;20798;-65
2023/07/26 01:24:11;;;;;;;4.20;2.07;;;12.60;99.90;;;;;;5094086;28;20430;-90
2023/07/26 01:26:38;;;;;;;4.57;1.70;;;12.60;99.90;;;;;;5091529;28;20073;-66
2023/07/26 01:29:03;;;;;;;;;;;12.50;99.90;;;;;;5090466;28;20103;-65
2023/07/26 01:31:30;;;;;;;2.23;1.57;;;12.50;99.90;;;;;;5083570;28;20269;-65
2023/07/26 01:33:58;;;;;;;2.22;1.83;;;12.50;99.90;;;;;;5092412;28;20040;-91
2023/07/26 01:36:25;;;;;;;2.25;1.88;;;12.50;99.90;;;;;;5091965;28;20121;-65
2023/07/26 01:38:52;;;;;;;2.50;1.65;;;12.40;99.90;;;;;;5093704;28;20048;-65
2023/07/26 01:41:18;;;;;;;2.47;2.03;;;12.40;99.90;;;;;;5094435;28;20111;-65
2023/07/26 01:43:44;;;;;;;3.10;1.73;;;12.30;99.90;;;;;;5075958;28;20032;-65
2023/07/26 01:46:14;;;;;;;2.93;2.10;;;12.30;99.90;;;;;;5092478;28;20025;-92
2023/07/26 01:48:40;;;;;;;2.10;1.75;;;12.30;99.90;;;;;;5092858;28;20273;-65
2023/07/26 01:51:07;;;;;;;1.98;1.70;;;12.30;99.90;;;;;;5091346;28;20099;-66
2023/07/26 01:53:33;;;;;;;2.70;1.80;;;12.30;99.90;;;;;;5093750;28;20081;-65
2023/07/26 01:56:00;;;;;;;1.92;1.48;;;12.20;99.90;;;;;;5092908;28;20083;-65
2023/07/26 01:58:26;;;;;;;4.35;2.17;;;12.20;99.90;;;;;;5081311;28;20089;-65
2023/07/26 02:00:52;;;;;;;2.07;1.87;;;12.10;99.90;;;;;;5094545;28;20020;-65
2023/07/26 02:03:18;;;;;;;2.63;1.80;;;12.10;99.90;;;;;;5091974;28;20281;-65
2023/07/26 02:05:45;;;;;;;2.13;1.70;;;12.20;99.90;;;;;;5087844;28;20024;-65
2023/07/26 02:08:11;;;;;;;;;;;12.20;99.90;;;;;;5094542;28;20111;-91
2023/07/26 02:10:38;;;;;;;2.22;1.63;;;12.10;99.90;;;;;;5093485;28;19912;-64
2023/07/26 02:13:03;;;;;;;2.08;1.55;;;12.10;99.90;;;;;;5092601;28;20032;-65
2023/07/26 02:15:29;;;;;;;3.53;1.77;;;12.10;99.90;;;;;;5093977;28;20035;-65
2023/07/26 02:17:55;;;;;;;2.47;1.93;;;12.10;99.90;;;;;;5090564;28;20025;-65
2023/07/26 02:20:20;;;;;;;2.47;1.90;;;12.00;99.90;;;;;;5092934;28;20062;-65
2023/07/26 02:22:46;;;;;;;3.50;1.90;;;11.90;99.90;;;;;;5093624;28;20070;-65
2023/07/26 02:25:12;;;;;;;2.63;2.00;;;12.00;99.90;;;;;;5092555;28;20024;-91
2023/07/26 02:27:38;;;;;;;4.30;2.17;;;12.00;99.90;;;;;;5093456;28;20025;-65
2023/07/26 02:30:04;;;;;;;3.33;2.40;;;11.90;99.90;;;;;;5091321;28;20415;-65
2023/07/26 02:32:30;;;;;;;5.07;2.63;;;11.90;99.90;;;;;;5096556;28;20040;-65
2023/07/26 02:34:56;;;;;;;5.80;2.77;;;12.00;99.90;;;;;;5096040;28;20028;-66
2023/07/26 02:37:21;;;;;;;6.47;2.37;;;12.10;99.90;;;;;;5079446;28;20031;-65
2023/07/26 02:39:48;;;;;;;4.33;2.40;;;12.10;99.90;;;;;;5097422;28;20024;-65
2023/07/26 02:42:13;;;;;;;3.03;1.80;;;12.00;99.90;;;;;;5096017;28;20379;-83
2023/07/26 02:44:39;;;;;;;2.63;1.83;;;12.00;99.90;;;;;;5095897;28;20107;-65
2023/07/26 02:47:05;;;;;;;2.47;1.90;;;11.90;99.90;;;;;;5097768;28;20051;-65
2023/07/26 02:49:31;;;;;;;4.87;2.63;;;11.90;99.90;;;;;;5097201;28;20032;-65
2023/07/26 02:51:57;;;;;;;3.83;2.33;;;11.90;99.90;;;;;;5095718;28;20020;-66
2023/07/26 02:54:23;;;;;;;2.70;2.17;;;11.90;99.90;;;;;;5095792;28;20066;-65
2023/07/26 02:56:49;;;;;;;6.03;2.30;;;11.90;99.90;;;;;;5096565;28;20052;-64
2023/07/26 02:59:15;;;;;;;3.03;2.33;;;11.90;99.90;;;;;;5090348;28;20113;-91
2023/07/26 03:01:40;;;;;;;5.87;2.27;;;12.00;99.90;;;;;;5095651;28;20032;-65
2023/07/26 03:04:06;;;;;;;4.90;2.80;;;12.10;99.90;;;;;;5094100;28;20032;-65
2023/07/26 03:06:32;;;;;;;7.87;2.43;;;12.20;99.90;;;;;;5096294;28;20056;-65
2023/07/26 03:08:57;;;;;;;3.97;2.93;;;12.20;99.90;;;;;;5097526;28;20134;-65
2023/07/26 03:11:23;;;;;;;2.77;2.13;;;12.20;99.90;;;;;;5095854;28;20024;-65
2023/07/26 03:13:49;;;;;;;2.73;2.30;;;12.20;99.90;;;;;;5095260;28;20047;-65
2023/07/26 03:16:16;;;;;;;7.17;2.87;;;12.20;99.90;;;;;;5093559;28;20111;-70
2023/07/26 03:18:42;;;;;;;4.00;1.88;;;12.20;99.90;;;;;;5094524;28;20035;-64
2023/07/26 03:21:08;;;;;;;6.33;2.20;;;12.30;99.90;;;;;;5097078;28;20356;-65
2023/07/26 03:23:34;;;;;;;4.03;2.10;;;12.30;99.90;;;;;;5095554;28;20020;-65
2023/07/26 03:26:01;;;;;;;3.70;2.47;;;12.30;99.90;;;;;;5093365;28;20028;-65
2023/07/26 03:28:27;;;;;;;5.00;2.47;;;12.40;99.90;;;;;;5094729;28;20277;-64
2023/07/26 03:30:53;;;;;;;4.07;2.30;;;12.40;99.90;;;;;;5083128;28;20036;-65
2023/07/26 03:33:18;;;;;;;3.03;2.37;;;12.40;99.90;;;;;;5096030;28;20082;-64
2023/07/26 03:35:44;;;;;;;3.77;2.60;;;12.40;99.90;;;;;;5094123;28;20024;-65
2023/07/26 03:38:10;;;;;;;8.40;2.90;;;12.40;99.90;;;;;;5089760;28;20021;-89
2023/07/26 03:40:35;;;;;;;5.10;2.43;;;12.40;99.90;;;;;;5081542;28;20024;-65
2023/07/26 03:43:01;;;;;;;4.87;2.37;;;12.50;99.90;;;;;;5084337;28;20056;-90
2023/07/26 03:45:27;;;;;;;4.10;2.40;;;12.50;99.90;;;;;;5088253;28;20047;-65
2023/07/26 03:47:53;;;;;;;3.83;2.40;;;12.60;99.90;;;;;;5085389;28;20016;-65
2023/07/26 03:50:20;;;;;;;5.95;2.67;;;12.60;99.90;;;;;;5086235;28;20300;-65
2023/07/26 03:52:46;;;;;;;3.78;2.22;;;12.60;99.90;;;;;;5082634;28;20025;-66
2023/07/26 03:55:12;;;;;;;5.13;2.60;;;12.60;99.90;;;;;;5085175;28;20343;-90
2023/07/26 03:57:38;;;;;;;3.10;2.27;;;12.60;99.90;;;;;;5074426;28;20012;-65
2023/07/26 04:00:04;;;;;;;2.23;1.97;;;12.60;99.90;;;;;;5088296;28;20016;-77
2023/07/26 04:02:31;;;;;;;6.35;2.30;;;12.60;99.90;;;;;;5086596;28;20012;-65
2023/07/26 04:04:57;;;;;;;4.65;2.53;;;12.60;99.90;;;;;;5090125;28;20042;-65
2023/07/26 04:07:23;;;;;;;4.27;2.33;;;12.70;99.90;;;;;;5085630;28;20033;-65
2023/07/26 04:09:49;;;;;;;2.75;2.03;;;12.70;99.90;;;;;;5088633;28;20299;-65
2023/07/26 04:12:15;;;;;;;4.27;2.43;;;12.70;99.90;;;;;;5090826;28;20031;-72
2023/07/26 04:14:41;;;;;;;3.90;2.50;;;12.70;99.90;;;;;;5085541;28;20082;-65
2023/07/26 04:17:09;;;;;;;4.38;2.40;;;12.70;99.90;;;;;;5088817;28;20029;-65
2023/07/26 04:19:35;;;;;;;4.20;2.08;;;12.70;99.90;;;;;;5088586;28;20041;-65
2023/07/26 04:22:01;;;;;;;9.33;2.60;;;12.70;99.90;;;;;;5086891;28;20150;-65
2023/07/26 04:24:27;;;;;;;2.83;1.73;;;12.80;99.90;;;;;;5086058;28;20032;-65
2023/07/26 04:26:52;;;;;;;2.50;1.73;;;12.80;99.90;;;;;;5093810;28;20020;-64
2023/07/26 04:29:18;;;;;;;7.13;2.07;;;12.80;99.90;;;;;;5089291;28;20031;-65
2023/07/26 04:31:44;;;;;;;3.23;2.07;;;12.70;99.90;;;;;;5090497;28;20028;-65
2023/07/26 04:34:12;;;;;;;3.70;1.70;;;12.70;99.90;;;;;;5085798;28;20260;-90
2023/07/26 04:36:39;;;;;;;2.58;1.77;;;12.70;99.90;;;;;;5081325;28;20431;-65
2023/07/26 04:39:05;;;;;;;3.73;2.57;;;12.70;99.90;;;;;;5084186;28;20043;-65
2023/07/26 04:41:30;;;;;;;2.53;1.80;;;12.70;99.90;;;;;;5086220;28;20062;-64
2023/07/26 04:43:56;;;;;;;4.03;2.33;;;12.70;99.90;;;;;;5094495;28;20113;-66
2023/07/26 04:46:22;;;;;;;5.93;2.20;;;12.70;99.90;;;;;;5094062;28;20034;-66
2023/07/26 04:48:47;;;;;;;3.20;2.50;;;12.70;99.90;;;;;;5089408;28;20028;-65
2023/07/26 04:51:13;;;;;;;5.70;2.50;;;12.70;99.90;;;;;;5093299;28;20052;-93
2023/07/26 04:53:39;;;;;;;3.87;2.47;;;12.70;99.90;;;;;;5093945;28;20027;-65
2023/07/26 04:56:05;;;;;;;2.67;2.23;;;12.70;99.90;;;;;;5092621;28;20052;-65
2023/07/26 04:58:31;;;;;;;4.18;2.42;;;12.70;99.90;;;;;;5095124;28;20058;-65
2023/07/26 05:00:58;;;;;;;3.80;2.63;;;12.80;99.90;;;;;;5087683;28;20813;-92
2023/07/26 05:03:24;;;;;;;4.70;2.67;;;12.90;99.90;;;;;;5094211;28;20338;-65
2023/07/26 05:05:51;;;;;;;5.70;2.87;;;12.90;99.90;;;;;;5094360;28;20016;-65
2023/07/26 05:08:21;;;;;;;5.60;3.00;;;13.00;99.90;;;;;;5093890;28;20052;-65
2023/07/26 05:10:51;;;;;;;5.60;3.20;;;13.10;99.90;;;;;;5091661;28;20016;-65
2023/07/26 05:13:18;;;;;;;3.67;2.55;;;13.20;99.90;;;;;;5092941;28;20032;-65
2023/07/26 05:15:45;;;;;;;7.65;3.58;;;13.30;99.90;;;;;;5092066;28;20044;-65
2023/07/26 05:18:10;;;;;;;4.40;2.78;;;13.40;99.90;;;;;;5092367;28;20028;-89
2023/07/26 05:20:37;;;;;;;4.80;3.17;;;13.50;99.90;;;;;;5093927;28;20032;-65
2023/07/26 05:23:03;;;;;;;4.57;2.90;;;13.50;99.90;;;;;;5092925;28;20020;-64
2023/07/26 05:25:28;;;;;;;5.47;3.27;;;13.60;99.90;;;;;;5091801;28;20466;-66
2023/07/26 05:27:55;;;;;;;3.97;2.83;;;13.60;99.90;;;;;;5089850;28;20031;-66
2023/07/26 05:30:20;;;;;;;4.97;3.00;;;13.60;99.90;;;;;;5091722;28;20016;-66
2023/07/26 05:32:46;;;;;;;4.03;3.03;;;13.60;99.90;;;;;;5094553;28;20085;-66
2023/07/26 05:35:12;;;;;;;6.80;3.77;;;13.60;99.90;;;;;;5092659;28;20027;-67
2023/07/26 05:37:38;;;;;;;4.70;3.33;;;13.60;99.90;;;;;;5092931;28;20028;-67
2023/07/26 05:40:05;;;;;;;6.75;2.58;;;13.60;99.90;;;;;;5092504;28;20186;-67
2023/07/26 05:42:32;;;;;;;3.63;3.00;;;13.50;99.90;;;;;;5088732;28;20029;-82
2023/07/26 05:44:57;;;;;;;7.32;3.38;;;13.50;99.90;;;;;;5066573;28;20016;-67
2023/07/26 05:47:24;;;;;;;4.93;3.20;;;13.50;99.90;;;;;;5091972;28;20036;-67
2023/07/26 05:49:50;;;;;;;5.90;3.38;;;13.50;99.90;;;;;;5094508;28;20021;-67
2023/07/26 05:52:16;;;;;;;7.00;3.47;;;13.40;99.90;;;;;;5093442;28;20020;-68
2023/07/26 05:54:41;;;;;;;5.07;2.93;;;13.40;99.90;;;;;;5090828;28;20280;-68
2023/07/26 05:57:07;;;;;;;5.00;3.33;;;13.30;99.90;;;;;;5092130;28;20056;-68
2023/07/26 05:59:33;;;;;;;5.03;3.23;;;13.30;99.90;;;;;;5084162;28;20031;-66
2023/07/26 06:01:59;;;;;;;7.83;4.00;;;13.30;99.90;;;;;;5093961;28;20075;-67
2023/07/26 06:04:25;;;;;;;6.73;3.37;;;13.30;99.90;;;;;;5096538;28;20028;-66
2023/07/26 06:06:50;;;;;;;6.47;4.25;;;13.30;99.90;;;;;;5096117;28;20027;-66
2023/07/26 06:09:17;;;;;;;5.47;3.70;;;13.30;99.90;;;;;;5095226;28;20028;-66
2023/07/26 06:11:43;;;;;;;6.63;4.18;;;13.30;99.90;;;;;;5098020;28;20020;-65
2023/07/26 06:14:09;;;;;;;8.10;3.83;;;13.30;99.90;;;;;;5091521;28;20085;-66
2023/07/26 06:16:34;;;;;;;5.93;3.50;;;13.30;99.90;;;;;;5098070;28;20372;-65
2023/07/26 06:19:00;;;;;;;7.07;4.27;;;13.30;99.90;;;;;;5095188;28;20035;-65
2023/07/26 06:21:26;;;;;;;7.30;4.17;;;13.30;99.90;;;;;;5090209;28;20027;-66
2023/07/26 06:23:51;;;;;;;4.80;3.37;;;13.30;99.90;;;;;;5094226;28;20054;-66
2023/07/26 06:26:17;;;;;;;5.40;3.80;;;13.30;99.90;;;;;;5098375;28;20024;-66
2023/07/26 06:28:43;;;;;;;6.27;4.20;;;13.20;99.90;;;;;;5096543;28;20050;-65
2023/07/26 06:31:10;;;;;;;5.30;3.67;;;13.30;99.90;;;;;;5075089;28;20039;-65
2023/07/26 06:33:36;;;;;;;7.90;4.47;;;13.40;99.90;;;;;;5084157;28;20028;-65
2023/07/26 06:36:06;;;;;;;7.47;3.95;;;13.50;99.90;;;;;;5086227;28;20016;-83
2023/07/26 06:38:33;;;;;;;8.07;4.80;;;13.50;99.90;;;;;;5090834;28;20415;-65
2023/07/26 06:40:59;;;;;;;6.30;4.03;;;13.60;99.90;;;;;;5088980;28;20039;-65
2023/07/26 06:43:24;;;;;;;7.00;4.20;;;13.60;99.90;;;;;;5083711;28;20037;-65
2023/07/26 06:45:52;;;;;;;9.67;4.13;;;13.70;99.90;;;;;;5093328;28;20020;-66
2023/07/26 06:48:19;;;;;;;5.55;3.65;;;13.80;99.90;;;;;;5087274;28;20031;-65
2023/07/26 06:50:45;;;;;;;5.55;3.55;;;13.80;99.90;;;;;;5083428;28;20035;-66
2023/07/26 06:53:11;;;;;;;8.23;4.38;;;13.80;99.90;;;;;;5082286;28;20100;-80
2023/07/26 06:55:37;;;;;;;7.70;3.53;;;13.80;99.90;;;;;;5083536;28;20032;-65
2023/07/26 06:58:03;;;;;;;5.97;3.70;;;13.80;99.90;;;;;;5088442;28;20463;-65
2023/07/26 07:00:29;;;;;;;12.73;4.15;;;13.90;99.90;;;;;;5085919;28;20036;-66
2023/07/26 07:02:59;;;;;;;7.97;4.03;;;13.90;99.90;;;;;;5086657;28;20111;-65
2023/07/26 07:05:27;;;;;;;7.63;4.30;;;13.90;99.90;;;;;;5089212;28;20027;-66
2023/07/26 07:07:53;;;;;;;7.75;4.10;;;14.10;99.90;;;;;;5088561;28;20411;-79
2023/07/26 07:10:19;;;;;;;6.83;3.80;;;14.20;99.90;;;;;;5094989;28;20036;-66
2023/07/26 07:12:45;;;;;;;7.40;3.63;;;14.40;99.90;;;;;;5088304;28;20430;-68
2023/07/26 07:15:12;;;;;;;6.67;3.00;;;14.50;99.90;;;;;;5090820;28;20091;-66
2023/07/26 07:17:38;;;;;;;3.47;2.58;;;14.60;99.90;;;;;;5091453;28;20099;-80
2023/07/26 07:20:06;;;;;;;3.93;2.60;;;14.70;99.90;;;;;;5087576;28;20387;-66
2023/07/26 07:22:32;;;;;;;3.10;2.03;;;14.80;99.90;;;;;;5093779;28;20346;-79
2023/07/26 07:24:58;;;;;;;4.10;2.03;;;14.90;99.90;;;;;;5091241;28;20028;-66
2023/07/26 07:27:24;;;;;;;3.10;2.13;;;14.80;99.90;;;;;;5084816;28;21354;-67
2023/07/26 07:29:50;;;;;;;3.00;1.80;;;14.80;99.90;;;;;;5090762;28;20039;-66
2023/07/26 07:32:16;;;;;;;3.00;1.40;;;14.90;99.90;;;;;;5090928;28;20031;-67
2023/07/26 07:34:42;;;;;;;1.80;1.33;;;14.90;99.90;;;;;;5090190;28;20039;-79
2023/07/26 07:37:08;;;;;;;2.03;1.60;;;15.00;99.90;;;;;;5082794;28;20024;-66
2023/07/26 07:39:34;;;;;;;3.00;1.73;;;15.10;99.90;;;;;;5091489;28;20031;-67
2023/07/26 07:42:00;;;;;;;6.88;1.92;;;15.30;99.90;;;;;;5087771;28;20414;-66
2023/07/26 07:44:27;;;;;;;2.95;1.77;;;15.40;99.90;;;;;;5092265;28;20040;-67
2023/07/26 07:46:53;;;;;;;;;;;15.40;99.90;;;;;;5076425;28;20017;-66
2023/07/26 07:49:19;;;;;;;4.70;2.30;;;15.60;99.90;;;;;;5092402;28;19908;-66
2023/07/26 07:51:45;;;;;;;3.60;1.93;;;15.70;99.90;;;;;;5068484;28;20029;-75
2023/07/26 07:54:11;;;;;;;2.92;2.20;;;15.90;99.90;;;;;;5082297;28;20077;-67
2023/07/26 07:56:37;;;;;;;9.17;3.13;;;16.10;99.90;;;;;;5095264;28;20044;-67
2023/07/26 07:59:03;;;;;;;2.15;1.95;;;16.20;99.90;;;;;;5094344;28;20024;-67
2023/07/26 08:01:29;;;;;;;3.67;2.30;;;16.40;99.90;;;;;;5068472;28;20039;-66
2023/07/26 08:03:54;;;;;;;6.63;2.73;;;16.60;99.90;;;;;;5092209;28;20081;-65
2023/07/26 08:06:20;;;;;;;9.23;2.87;;;16.80;99.90;;;;;;5092072;28;20020;-66
2023/07/26 08:08:46;;;;;;;4.20;2.33;;;16.90;99.90;;;;;;5093518;28;20107;-66
2023/07/26 08:11:11;;;;;;;2.57;2.20;;;17.10;99.90;;;;;;5092902;28;20504;-65
2023/07/26 08:13:37;;;;;;;4.33;2.30;;;17.20;99.90;;;;;;5088077;28;20024;-66
2023/07/26 08:16:03;;;;;;;4.10;2.83;;;17.30;99.90;;;;;;5090106;28;20028;-66
2023/07/26 08:18:29;;;;;;;5.05;2.00;;;17.50;99.90;;;;;;5094412;28;20024;-66
2023/07/26 08:20:55;;;;;;;2.80;2.30;;;17.60;99.90;;;;;;5090033;28;20036;-65
2023/07/26 08:23:20;;;;;;;3.00;1.93;;;17.70;99.90;;;;;;5094664;28;20054;-65
2023/07/26 08:25:46;;;;;;;4.23;1.90;;;17.80;99.90;;;;;;5086866;28;20051;-65
2023/07/26 08:28:12;;;;;;;5.53;2.10;;;17.80;99.90;;;;;;5096097;28;20055;-66
2023/07/26 08:30:38;;;;;;;6.23;1.77;;;17.70;99.90;;;;;;5090576;28;20020;-65
2023/07/26 08:33:04;;;;;;;6.40;2.20;;;17.70;99.90;;;;;;5093050;28;20021;-65
2023/07/26 08:35:30;;;;;;;5.27;1.93;;;17.80;99.90;;;;;;5074799;28;20317;-89
2023/07/26 08:37:56;;;;;;;5.47;1.98;;;17.90;99.90;;;;;;5095208;28;20099;-66
2023/07/26 08:40:21;;;;;;;3.30;1.80;;;17.90;99.90;;;;;;5090883;28;20104;-66
2023/07/26 08:42:48;;;;;;;6.23;2.33;;;17.90;99.90;;;;;;5076778;28;20480;-67
2023/07/26 08:45:15;;;;;;;6.18;2.03;;;18.00;99.90;;;;;;5094258;28;20080;-85
2023/07/26 08:47:42;;;;;;;4.25;2.20;;;18.00;99.90;;;;;;5094842;28;20035;-66
2023/07/26 08:50:08;;;;;;;7.07;2.17;;;18.30;99.90;;;;;;5092116;28;20020;-66
2023/07/26 08:52:34;;;;;;;5.07;1.92;;;18.40;99.90;;;;;;5091591;28;20024;-81
2023/07/26 08:55:00;;;;;;;5.65;2.50;;;18.40;99.90;;;;;;5084586;28;20107;-65
2023/07/26 08:57:27;;;;;;;3.72;2.13;;;18.20;99.90;;;;;;5088920;28;20590;-65
2023/07/26 08:59:53;;;;;;;6.28;1.88;;;18.00;99.90;;;;;;5094200;28;20066;-66
2023/07/26 09:02:20;;;;;;;6.07;1.70;;;17.70;99.90;;;;;;5086875;28;20056;-68
2023/07/26 09:04:47;;;;;;;4.50;1.60;;;17.50;99.90;;;;;;5090113;28;20039;-68
2023/07/26 09:07:14;;;;;;;4.45;1.65;;;17.20;99.90;;;;;;5093450;28;20020;-68
2023/07/26 09:09:39;;;;;;;;;;;17.00;99.90;;;;;;5091213;28;20035;-77
2023/07/26 09:12:06;;;;;;;5.28;1.75;;;16.80;99.90;;;;;;5093627;28;19904;-68
2023/07/26 09:14:34;;;;;;;4.30;1.60;;;16.70;99.90;;;;;;5089969;28;20197;-69
2023/07/26 09:17:03;;;;;;;2.45;1.80;;;16.80;99.90;;;;;;5091605;28;20024;-68
2023/07/26 09:19:37;;;;;;;6.45;1.80;;;16.90;99.90;;;;;;5092114;28;20039;-68
2023/07/26 09:22:07;;;;;;;2.70;1.75;;;17.20;99.90;;;;;;5091454;28;20020;-68
2023/07/26 09:24:35;;;;;;;3.13;1.80;;;17.50;99.90;;;;;;5089890;28;20487;-81
2023/07/26 09:27:06;;;;;;;3.65;1.70;;;17.80;99.90;;;;;;5089744;28;20044;-68
2023/07/26 09:29:33;;;;;;;3.78;1.70;;;18.10;99.90;;;;;;5086765;28;20406;-68
2023/07/26 09:31:59;;;;;;;3.65;1.83;;;18.20;99.90;;;;;;5069991;28;20020;-68
2023/07/26 09:34:25;;;;;;;2.35;1.25;;;18.20;99.90;;;;;;5089062;28;20507;-68
2023/07/26 09:36:52;;;;;;;3.95;1.27;;;18.10;99.90;;;;;;5091367;28;20093;-67
2023/07/26 09:39:20;;;;;;;3.45;1.80;;;18.00;99.90;;;;;;5090470;28;20038;-68
2023/07/26 09:41:47;;;;;;;4.03;1.60;;;17.80;99.90;;;;;;5086632;28;20048;-67
2023/07/26 09:44:21;;;;;;;3.50;1.15;;;17.90;99.90;;;;;;5086519;28;20028;-66
2023/07/26 09:46:56;;;;;;;2.70;1.20;;;18.00;99.90;;;;;;5091784;28;20032;-67
2023/07/26 09:49:24;;;;;;;2.00;1.33;;;18.30;99.90;;;;;;5089601;28;20496;-67
2023/07/26 09:51:54;;;;;;;3.83;1.58;;;18.50;99.90;;;;;;5089887;28;20436;-67
2023/07/26 09:54:21;;;;;;;4.75;1.35;;;18.70;99.90;;;;;;5090923;28;20089;-67
2023/07/26 09:56:52;;;;;;;3.42;1.48;;;19.00;99.90;;;;;;5086485;28;20055;-68
2023/07/26 09:59:18;;;;;;;6.13;1.48;;;19.30;99.90;;;;;;5087828;28;20482;-67
2023/07/26 10:01:45;;;;;;;1.87;1.50;;;19.50;99.90;;;;;;5073046;28;20034;-67
2023/07/26 10:04:15;;;;;;;2.22;1.48;;;19.50;99.90;;;;;;5072435;28;20334;-87
2023/07/26 10:06:42;;;;;;;2.85;1.30;;;19.40;99.90;;;;;;5090069;28;20338;-67
2023/07/26 10:09:16;;;;;;;2.33;0.95;;;19.30;99.90;;;;;;5093148;28;20023;-67
2023/07/26 10:11:43;;;;;;;4.03;1.65;;;19.30;99.90;;;;;;5089279;28;20020;-67
2023/07/26 10:14:14;;;;;;;2.45;1.50;;;19.30;99.90;;;;;;5090255;28;20327;-67
2023/07/26 10:16:40;;;;;;;2.53;1.20;;;19.10;99.90;;;;;;5086671;28;20024;-83
2023/07/26 10:19:07;;;;;;;2.72;1.05;;;19.00;99.90;;;;;;5093812;28;20028;-69
2023/07/26 10:21:36;;;;;;;1.58;1.35;;;19.00;99.90;;;;;;5089916;28;20036;-81
2023/07/26 10:24:03;;;;;;;2.05;1.45;;;18.90;99.90;;;;;;5083690;28;20027;-66
2023/07/26 10:26:35;;;;;;;3.47;1.50;;;18.70;99.90;;;;;;5086566;28;20442;-66
2023/07/26 10:29:02;;;;;;;2.30;1.35;;;18.60;99.90;;;;;;5076098;28;20020;-80
2023/07/26 10:31:29;;;;;;;3.28;1.38;;;18.60;99.90;;;;;;5084875;28;20078;-66
2023/07/26 10:33:56;;;;;;;2.22;1.15;;;18.50;99.90;;;;;;5069088;28;20028;-65
2023/07/26 10:36:31;;;;;;;4.32;1.65;;;18.50;99.90;;;;;;5092908;28;20082;-66
2023/07/26 10:39:03;;;;;;;3.80;1.88;;;18.80;99.90;;;;;;5089562;28;20056;-67
2023/07/26 10:41:29;;;;;;;4.20;1.67;;;19.10;99.90;;;;;;5073802;28;20051;-83
2023/07/26 10:44:09;;;;;;;4.32;1.58;;;19.40;99.90;;;;;;5092386;28;20079;-66
2023/07/26 10:46:54;;;;;;;2.85;1.92;;;19.80;99.90;;;;;;5089847;28;20036;-66
2023/07/26 10:49:27;;;;;;;4.95;1.55;;;20.00;99.90;;;;;;5093322;28;20046;-66
2023/07/26 10:52:02;;;;;;;6.63;2.22;;;20.20;99.90;;;;;;5095980;28;20107;-66
2023/07/26 10:54:43;;;;;;;2.40;1.50;;;20.30;99.90;;;;;;5090755;28;20077;-67
2023/07/26 10:57:27;;;;;;;2.10;1.70;;;20.30;99.90;;;;;;5089844;28;20048;-66
2023/07/26 11:00:06;;;;;;;3.72;1.40;;;20.30;99.90;;;;;;5073926;28;20020;-66
2023/07/26 11:02:48;;;;;;;4.07;1.30;;;19.90;99.90;;;;;;5094501;28;20032;-67
2023/07/26 11:05:16;;;;;;;2.67;1.55;;;19.50;99.90;;;;;;5072765;28;20032;-89
2023/07/26 11:07:51;;;;;;;2.35;1.67;;;19.40;99.90;;;;;;5094239;28;20016;-65
2023/07/26 11:10:31;;;;;;;5.25;1.90;;;19.60;99.90;;;;;;5088258;28;20066;-84
2023/07/26 11:13:27;;;;;;;1.85;1.27;;;19.90;99.90;;;;;;5092402;28;20024;-67
2023/07/26 11:15:52;;;;;;;;;;;20.30;99.90;;;;;;5074850;28;20036;-81
2023/07/26 11:18:20;;;;;;;3.42;1.42;;;20.50;99.90;;;;;;5093579;28;19918;-67
2023/07/26 11:20:51;;;;;;;3.20;1.73;;;20.50;99.90;;;;;;5095402;28;20451;-67
2023/07/26 11:23:17;;;;;;;6.70;2.20;;;20.30;99.90;;;;;;5089727;28;20028;-67
2023/07/26 11:25:49;;;;;;;19.60;2.55;;;20.10;99.90;;;;;;5095051;28;20399;-67
2023/07/26 11:28:15;;;;;;;2.83;2.20;;;20.20;99.90;;;;;;5089825;28;20355;-81
2023/07/26 11:30:52;;;;;;;8.52;4.35;;;20.40;99.90;;;;;;5093209;28;20071;-81
2023/07/26 11:33:35;;;;;;;5.90;2.10;;;20.60;99.90;;;;;;5071156;28;20118;-68
2023/07/26 11:36:07;;;;;;;5.28;2.10;;;20.40;99.90;;;;;;5096909;28;20028;-67
2023/07/26 11:38:33;;;;;;;2.75;1.70;;;20.20;99.90;;;;;;5090353;28;20100;-68
2023/07/26 11:41:00;;;;;;;7.05;2.08;;;20.40;99.90;;;;;;5095697;28;20026;-68
2023/07/26 11:43:27;;;;;;;1.75;1.25;;;20.60;99.90;;;;;;5087035;28;20039;-67
2023/07/26 11:45:54;;;;;;;2.90;1.60;;;20.90;99.90;;;;;;5071849;28;20032;-67
2023/07/26 11:48:20;;;;;;;;;;;21.20;99.90;;;;;;5094666;28;20099;-67
2023/07/26 11:50:46;;;;;;;3.00;1.27;;;21.50;99.90;;;;;;5089011;28;19948;-68
2023/07/26 11:53:14;;;;;;;3.85;1.60;;;21.80;99.90;;;;;;5091807;28;20032;-88
2023/07/26 11:55:42;;;;;;;6.55;1.90;;;22.00;99.90;;;;;;5091432;28;20024;-69
2023/07/26 11:58:10;;;;;;;2.60;1.42;;;22.00;99.90;;;;;;5092781;28;20120;-68
2023/07/26 12:00:38;;;;;;;5.45;1.52;;;21.60;99.90;;;;;;5092102;28;20024;-68
2023/07/26 12:03:05;;;;;;;6.03;1.70;;;21.50;99.90;;;;;;5094448;28;20017;-67
2023/07/26 12:05:32;;;;;;;4.35;1.45;;;21.30;99.90;;;;;;5093919;28;20081;-67
2023/07/26 12:08:01;;;;;;;1.83;1.30;;;21.30;99.90;;;;;;5090778;28;20173;-67
2023/07/26 12:10:47;;;;;;;2.90;1.25;;;21.40;99.90;;;;;;5092809;28;20031;-67
2023/07/26 12:13:20;;;;;;;3.33;1.60;;;21.60;99.90;;;;;;5093083;28;20020;-78
2023/07/26 12:15:50;;;;;;;3.85;1.40;;;21.50;99.90;;;;;;5091934;28;20031;-67
2023/07/26 12:18:17;;;;;;;1.65;1.30;;;21.50;99.90;;;;;;5094309;28;20052;-67
2023/07/26 12:20:56;;;;;;;2.08;1.30;;;21.60;99.90;;;;;;5095184;28;20462;-85
2023/07/26 12:23:22;;;;;;;6.80;1.50;;;21.60;99.90;;;;;;5093522;28;20506;-67
2023/07/26 12:25:56;;;;;;;4.03;1.70;;;21.60;99.90;;;;;;5086767;28;20024;-67
2023/07/26 12:28:25;;;;;;;3.05;1.70;;;21.60;99.90;;;;;;5095083;28;20051;-67
2023/07/26 12:30:57;;;;;;;3.17;1.58;;;21.40;99.90;;;;;;5093917;28;20020;-66
2023/07/26 12:33:24;;;;;;;4.72;2.00;;;21.50;99.90;;;;;;5093203;28;20356;-67
2023/07/26 12:35:54;;;;;;;2.60;1.40;;;21.60;99.90;;;;;;5092739;28;20102;-67
2023/07/26 12:38:22;;;;;;;4.63;1.83;;;21.50;99.90;;;;;;5086899;28;20037;-67
2023/07/26 12:40:49;;;;;;;2.08;1.45;;;21.30;99.90;;;;;;5090601;28;20073;-67
2023/07/26 12:43:20;;;;;;;5.93;1.98;;;21.00;99.90;;;;;;5085255;28;20036;-76
2023/07/26 12:45:45;;;;;;;3.25;1.75;;;20.70;99.90;;;;;;5091082;28;20099;-67
2023/07/26 12:48:11;;;;;;;5.60;1.50;;;20.60;99.90;;;;;;5094222;28;20106;-80